createdAt,value
2018-08-24T00:00:02.595Z,18.50
2018-08-24T00:02:30.243Z,18.40
2018-08-24T00:05:05.071Z,18.30
2018-08-24T00:07:32.898Z,18.30
2018-08-24T00:10:00.587Z,18.20
2018-08-24T00:12:28.457Z,18.20
2018-08-24T00:14:56.179Z,18.30
2018-08-24T00:17:28.903Z,18.30
2018-08-24T00:19:56.535Z,18.30
2018-08-24T00:22:24.807Z,18.40
2018-08-24T00:24:52.531Z,18.50
2018-08-24T00:27:20.188Z,18.50
2018-08-24T00:29:47.995Z,18.60
2018-08-24T00:32:15.696Z,18.70
2018-08-24T00:34:43.402Z,18.70
2018-08-24T00:37:11.159Z,18.70
2018-08-24T00:39:41.743Z,18.70
2018-08-24T00:42:09.559Z,18.60
2018-08-24T00:44:37.762Z,18.50
2018-08-24T00:47:07.676Z,18.40
2018-08-24T00:49:35.506Z,18.40
2018-08-24T00:52:03.174Z,18.40
2018-08-24T00:54:31.212Z,18.40
2018-08-24T00:56:58.918Z,18.40
2018-08-24T00:59:26.630Z,18.50
2018-08-24T01:01:54.298Z,18.60
2018-08-24T01:04:27.681Z,18.60
2018-08-24T01:06:55.547Z,18.70
2018-08-24T01:09:23.367Z,18.70
2018-08-24T01:11:56.808Z,18.70
2018-08-24T01:14:24.540Z,18.70
2018-08-24T01:16:58.528Z,18.60
2018-08-24T01:19:26.356Z,18.50
2018-08-24T01:21:54.329Z,18.60
2018-08-24T01:24:26.655Z,18.60
2018-08-24T01:27:00.003Z,18.60
2018-08-24T01:29:27.867Z,18.70
2018-08-24T01:31:55.563Z,18.90
2018-08-24T01:34:23.531Z,19.10
2018-08-24T01:36:51.399Z,19.10
2018-08-24T01:39:19.071Z,19.10
2018-08-24T01:41:46.781Z,19.10
2018-08-24T01:44:14.459Z,19.10
2018-08-24T01:46:42.362Z,19.00
2018-08-24T01:49:10.024Z,19.00
2018-08-24T01:51:37.704Z,19.10
2018-08-24T01:54:05.561Z,19.20
2018-08-24T01:56:33.694Z,19.40
2018-08-24T01:59:01.534Z,19.40
2018-08-24T02:01:29.324Z,19.40
2018-08-24T02:03:57.377Z,19.50
2018-08-24T02:06:25.475Z,19.70
2018-08-24T02:08:53.256Z,19.70
2018-08-24T02:11:26.645Z,19.70
2018-08-24T02:14:00.253Z,19.70
2018-08-24T02:16:32.798Z,19.60
2018-08-24T02:19:06.303Z,19.60
2018-08-24T02:21:39.726Z,19.60
2018-08-24T02:24:09.634Z,19.60
2018-08-24T02:26:37.399Z,19.50
2018-08-24T02:29:05.438Z,19.40
2018-08-24T02:31:37.855Z,19.30
2018-08-24T02:34:06.220Z,19.40
2018-08-24T02:36:33.965Z,19.40
2018-08-24T02:39:01.833Z,19.40
2018-08-24T02:41:29.514Z,19.30
2018-08-24T02:43:58.231Z,19.20
2018-08-24T02:46:25.912Z,19.20
2018-08-24T02:48:53.883Z,19.20
2018-08-24T02:51:21.538Z,19.30
2018-08-24T02:53:49.672Z,19.30
2018-08-24T02:56:17.876Z,19.30
2018-08-24T02:58:45.659Z,19.30
2018-08-24T03:01:13.799Z,19.20
2018-08-24T03:03:41.512Z,19.00
2018-08-24T03:06:09.514Z,18.90
2018-08-24T03:08:37.343Z,18.70
2018-08-24T03:11:05.068Z,19.00
2018-08-24T03:13:32.810Z,18.70
2018-08-24T03:16:00.593Z,18.60
2018-08-24T03:18:28.494Z,18.60
2018-08-24T03:20:56.371Z,18.50
2018-08-24T03:23:24.269Z,18.40
2018-08-24T03:25:51.993Z,18.40
2018-08-24T03:28:19.749Z,18.40
2018-08-24T03:30:47.420Z,18.40
2018-08-24T03:33:15.119Z,18.50
2018-08-24T03:35:42.799Z,18.60
2018-08-24T03:38:11.248Z,18.70
2018-08-24T03:40:38.958Z,18.80
2018-08-24T03:43:06.635Z,18.90
2018-08-24T03:45:34.372Z,18.90
2018-08-24T03:48:02.167Z,19.00
2018-08-24T03:50:29.994Z,19.00
2018-08-24T03:52:57.883Z,19.00
2018-08-24T03:55:25.780Z,18.90
2018-08-24T03:57:53.580Z,18.90
2018-08-24T04:00:21.320Z,18.90
2018-08-24T04:02:49.212Z,18.90
2018-08-24T04:05:17.029Z,18.80
2018-08-24T04:07:45.091Z,18.70
2018-08-24T04:10:12.769Z,18.60
2018-08-24T04:12:40.739Z,18.50
2018-08-24T04:15:08.379Z,18.40
2018-08-24T04:17:43.161Z,18.40
2018-08-24T04:20:11.824Z,18.30
2018-08-24T04:22:39.631Z,18.30
2018-08-24T04:25:07.664Z,18.30
2018-08-24T04:27:35.631Z,18.50
2018-08-24T04:30:03.500Z,18.60
2018-08-24T04:32:31.249Z,18.80
2018-08-24T04:34:59.304Z,18.70
2018-08-24T04:37:26.996Z,18.60
2018-08-24T04:39:54.777Z,18.50
2018-08-24T04:42:22.459Z,18.40
2018-08-24T04:44:50.138Z,18.30
2018-08-24T04:47:18.254Z,18.30
2018-08-24T04:49:45.926Z,18.20
2018-08-24T04:52:13.720Z,18.20
2018-08-24T04:54:41.453Z,18.20
2018-08-24T04:57:09.549Z,18.10
2018-08-24T04:59:37.519Z,18.10
2018-08-24T05:02:05.843Z,18.10
2018-08-24T05:04:33.718Z,18.10
2018-08-24T05:07:01.370Z,18.10
2018-08-24T05:09:29.056Z,18.10
2018-08-24T05:11:57.254Z,18.20
2018-08-24T05:14:25.017Z,18.30
2018-08-24T05:16:53.328Z,18.40
2018-08-24T05:19:21.353Z,18.40
2018-08-24T05:21:49.035Z,18.60
2018-08-24T05:24:16.727Z,18.70
2018-08-24T05:26:44.493Z,18.90
2018-08-24T05:29:12.235Z,19.10
2018-08-24T05:31:40.149Z,19.40
2018-08-24T05:35:32.649Z,19.00
2018-08-24T05:38:00.340Z,19.80
2018-08-24T05:40:28.169Z,20.50
2018-08-24T05:42:55.864Z,20.70
2018-08-24T05:45:27.524Z,20.80
2018-08-24T05:47:56.331Z,20.80
2018-08-24T05:50:24.734Z,20.80
2018-08-24T05:52:52.590Z,20.80
2018-08-24T05:55:20.636Z,20.70
2018-08-24T05:57:48.304Z,20.70
2018-08-24T06:00:16.751Z,20.80
2018-08-24T06:02:45.001Z,20.80
2018-08-24T06:05:12.980Z,20.90
2018-08-24T06:07:40.798Z,20.90
2018-08-24T06:10:08.627Z,21.00
2018-08-24T06:12:36.527Z,21.00
2018-08-24T06:15:04.400Z,21.00
2018-08-24T06:17:37.825Z,21.00
2018-08-24T06:20:06.031Z,21.00
2018-08-24T06:22:33.925Z,21.10
2018-08-24T06:25:01.701Z,21.10
2018-08-24T06:27:29.460Z,21.00
2018-08-24T06:29:57.197Z,21.00
2018-08-24T06:32:25.252Z,21.00
2018-08-24T06:34:53.086Z,21.00
2018-08-24T06:37:21.147Z,21.00
2018-08-24T06:39:49.139Z,21.00
2018-08-24T06:42:17.220Z,21.10
2018-08-24T06:44:45.024Z,21.30
2018-08-24T06:47:15.182Z,21.50
2018-08-24T06:49:43.168Z,21.80
2018-08-24T06:52:10.911Z,22.20
2018-08-24T06:54:38.805Z,22.50
2018-08-24T06:57:06.509Z,22.80
2018-08-24T06:59:34.679Z,22.70
2018-08-24T07:02:02.354Z,22.80
2018-08-24T07:04:30.114Z,22.90
2018-08-24T07:06:57.902Z,22.90
2018-08-24T07:09:25.654Z,22.80
2018-08-24T07:11:53.669Z,22.50
2018-08-24T07:14:21.336Z,22.50
2018-08-24T07:16:53.887Z,22.40
2018-08-24T07:19:21.624Z,22.30
2018-08-24T07:21:49.395Z,22.30
2018-08-24T07:24:17.209Z,22.30
2018-08-24T07:26:45.408Z,22.30
2018-08-24T07:29:13.272Z,22.30
2018-08-24T07:31:40.919Z,22.30
2018-08-24T07:34:09.251Z,22.40
2018-08-24T07:36:37.435Z,22.40
2018-08-24T07:39:09.469Z,22.50
2018-08-24T07:41:38.333Z,22.70
2018-08-24T07:44:06.511Z,22.70
2018-08-24T07:46:35.106Z,22.60
2018-08-24T07:49:04.367Z,22.90
2018-08-24T07:51:32.193Z,23.60
2018-08-24T07:54:00.032Z,24.60
2018-08-24T07:56:29.544Z,24.60
2018-08-24T07:58:58.114Z,24.30
2018-08-24T08:01:26.675Z,24.20
2018-08-24T08:03:54.347Z,24.00
2018-08-24T08:06:22.202Z,23.80
2018-08-24T08:08:49.971Z,23.60
2018-08-24T08:11:17.739Z,23.20
2018-08-24T08:13:45.624Z,22.70
2018-08-24T08:16:13.498Z,22.30
2018-08-24T08:18:41.402Z,22.00
2018-08-24T08:21:09.482Z,22.00
2018-08-24T08:23:37.547Z,22.10
2018-08-24T08:26:05.630Z,22.10
2018-08-24T08:28:33.464Z,22.10
2018-08-24T08:31:01.391Z,22.30
2018-08-24T08:33:29.166Z,23.50
2018-08-24T08:35:56.946Z,25.20
2018-08-24T08:38:24.782Z,27.30
2018-08-24T08:40:52.627Z,28.10
2018-08-24T08:43:20.320Z,29.50
2018-08-24T08:45:48.405Z,29.10
2018-08-24T08:48:16.067Z,27.70
2018-08-24T08:50:43.903Z,26.80
2018-08-24T08:53:11.720Z,26.10
2018-08-24T08:55:39.380Z,26.50
2018-08-24T08:58:07.394Z,27.30
2018-08-24T09:00:36.137Z,27.00
2018-08-24T09:03:03.960Z,27.00
2018-08-24T09:05:31.655Z,26.50
2018-08-24T09:07:59.614Z,25.90
2018-08-24T09:10:27.332Z,26.00
2018-08-24T09:12:55.199Z,26.40
2018-08-24T09:15:22.905Z,26.60
2018-08-24T09:17:56.424Z,26.70
2018-08-24T09:20:30.390Z,27.30
2018-08-24T09:23:03.737Z,28.90
2018-08-24T09:25:37.294Z,30.90
2018-08-24T09:28:10.763Z,32.60
2018-08-24T09:30:41.789Z,32.90
2018-08-24T09:33:09.573Z,32.60
2018-08-24T09:35:37.342Z,30.50
2018-08-24T09:38:05.223Z,28.80
2018-08-24T09:40:38.546Z,27.10
2018-08-24T09:43:12.136Z,25.60
2018-08-24T09:45:39.771Z,24.80
2018-08-24T09:48:13.283Z,24.30
2018-08-24T09:50:46.828Z,24.60
2018-08-24T09:53:20.308Z,25.10
2018-08-24T09:55:48.081Z,25.50
2018-08-24T09:58:15.854Z,25.00
2018-08-24T10:00:49.294Z,24.20
2018-08-24T10:03:22.628Z,23.70
2018-08-24T10:05:56.407Z,23.20
2018-08-24T10:08:29.079Z,22.70
2018-08-24T10:10:56.961Z,22.30
2018-08-24T10:13:24.762Z,22.60
2018-08-24T10:15:52.403Z,23.70
2018-08-24T10:18:20.101Z,24.40
2018-08-24T10:20:47.933Z,25.00
2018-08-24T10:23:15.757Z,24.40
2018-08-24T10:25:43.425Z,24.60
2018-08-24T10:28:11.203Z,24.30
2018-08-24T10:30:39.052Z,24.20
2018-08-24T10:33:07.808Z,24.20
2018-08-24T10:35:35.764Z,24.20
2018-08-24T10:38:03.669Z,24.40
2018-08-24T10:40:31.372Z,24.60
2018-08-24T10:42:59.120Z,25.70
2018-08-24T10:45:26.880Z,26.90
2018-08-24T10:47:54.668Z,28.10
2018-08-24T10:50:22.600Z,28.60
2018-08-24T10:52:50.371Z,28.00
2018-08-24T10:55:18.116Z,26.50
2018-08-24T10:57:45.814Z,24.90
2018-08-24T11:00:16.965Z,23.50
2018-08-24T11:02:44.648Z,22.60
2018-08-24T11:05:12.396Z,21.80
2018-08-24T11:07:40.086Z,20.70
2018-08-24T11:10:08.047Z,19.60
2018-08-24T11:12:36.010Z,19.10
2018-08-24T11:15:04.732Z,18.50
2018-08-24T11:17:37.089Z,18.20
2018-08-24T11:20:05.343Z,18.00
2018-08-24T11:22:34.415Z,17.90
2018-08-24T11:25:02.132Z,17.70
2018-08-24T11:27:29.872Z,17.50
2018-08-24T11:29:57.581Z,17.30
2018-08-24T11:32:25.265Z,17.10
2018-08-24T11:34:53.117Z,17.00
2018-08-24T11:37:20.863Z,16.80
2018-08-24T11:39:48.526Z,16.80
2018-08-24T11:42:16.292Z,16.70
2018-08-24T11:44:43.871Z,16.60
2018-08-24T11:47:15.373Z,16.50
2018-08-24T11:49:43.184Z,16.60
2018-08-24T11:52:10.915Z,16.80
2018-08-24T11:54:38.638Z,16.90
2018-08-24T11:57:06.431Z,17.00
2018-08-24T11:59:34.184Z,17.30
2018-08-24T12:02:02.272Z,17.50
2018-08-24T12:04:29.920Z,17.70
2018-08-24T12:06:57.968Z,17.90
2018-08-24T12:09:25.635Z,18.10
2018-08-24T12:11:54.575Z,18.20
2018-08-24T12:14:22.377Z,18.80
2018-08-24T12:16:50.113Z,19.40
2018-08-24T12:19:17.874Z,19.70
2018-08-24T12:21:45.683Z,20.10
2018-08-24T12:24:13.712Z,20.00
2018-08-24T12:26:41.885Z,19.70
2018-08-24T12:29:09.565Z,19.40
2018-08-24T12:31:37.268Z,19.00
2018-08-24T12:34:05.614Z,18.90
2018-08-24T12:36:33.548Z,18.80
2018-08-24T12:39:01.572Z,19.00
2018-08-24T12:41:29.308Z,19.20
2018-08-24T12:43:57.079Z,19.20
2018-08-24T12:46:24.804Z,19.20
2018-08-24T12:48:52.444Z,18.90
2018-08-24T12:51:20.127Z,18.70
2018-08-24T12:53:47.811Z,18.60
2018-08-24T12:56:18.840Z,18.50
2018-08-24T12:58:47.164Z,18.30
2018-08-24T13:01:14.975Z,18.00
2018-08-24T13:03:43.146Z,18.00
2018-08-24T13:06:11.115Z,17.90
2018-08-24T13:08:38.884Z,17.80
2018-08-24T13:11:06.527Z,17.60
2018-08-24T13:13:34.576Z,17.50
2018-08-24T13:16:02.353Z,17.50
2018-08-24T13:18:30.114Z,17.50
2018-08-24T13:20:57.772Z,17.50
2018-08-24T13:23:25.628Z,17.60
2018-08-24T13:25:53.745Z,17.70
2018-08-24T13:28:21.496Z,17.70
2018-08-24T13:30:49.679Z,17.70
2018-08-24T13:33:17.552Z,17.70
2018-08-24T13:35:45.427Z,17.80
2018-08-24T13:38:13.145Z,17.60
2018-08-24T13:40:40.899Z,17.70
2018-08-24T13:43:10.207Z,17.80
2018-08-24T13:45:38.145Z,17.90
2018-08-24T13:48:06.416Z,18.20
2018-08-24T13:50:34.453Z,18.40
2018-08-24T13:53:02.556Z,18.70
2018-08-24T13:55:30.932Z,19.00
2018-08-24T13:57:58.687Z,19.30
2018-08-24T14:00:26.779Z,19.40
2018-08-24T14:02:54.784Z,19.70
2018-08-24T14:05:22.830Z,19.80
2018-08-24T14:07:50.576Z,19.90
2018-08-24T14:10:18.292Z,19.90
2018-08-24T14:12:46.147Z,20.10
2018-08-24T14:15:13.856Z,20.30
2018-08-24T14:17:42.581Z,20.30
2018-08-24T14:20:10.565Z,20.20
2018-08-24T14:22:38.239Z,20.20
2018-08-24T14:25:05.935Z,20.30
2018-08-24T14:27:33.751Z,19.80
2018-08-24T14:30:01.548Z,19.60
2018-08-24T14:32:29.192Z,19.60
2018-08-24T14:34:56.947Z,19.50
2018-08-24T14:37:24.635Z,19.60
2018-08-24T14:39:52.271Z,19.60
2018-08-24T14:42:20.220Z,19.60
2018-08-24T14:44:48.048Z,19.50
2018-08-24T14:47:15.696Z,19.40
2018-08-24T14:49:43.451Z,19.40
2018-08-24T14:52:12.814Z,19.40
2018-08-24T14:54:40.815Z,19.40
2018-08-24T14:57:08.611Z,19.30
2018-08-24T14:59:36.456Z,19.30
2018-08-24T15:02:04.783Z,19.30
2018-08-24T15:04:32.653Z,19.30
2018-08-24T15:07:00.439Z,19.20
2018-08-24T15:09:28.099Z,19.10
2018-08-24T15:11:56.031Z,18.90
2018-08-24T15:14:23.675Z,18.80
2018-08-24T15:16:51.505Z,18.90
2018-08-24T15:19:19.251Z,19.00
2018-08-24T15:21:46.967Z,19.10
2018-08-24T15:24:15.025Z,19.10
2018-08-24T15:26:42.672Z,19.00
2018-08-24T15:29:10.512Z,19.00
2018-08-24T15:31:38.212Z,18.70
2018-08-24T15:34:06.128Z,18.50
2018-08-24T15:36:34.024Z,18.50
2018-08-24T15:39:02.530Z,18.60
2018-08-24T15:41:30.191Z,18.70
2018-08-24T15:43:57.975Z,18.80
2018-08-24T15:46:25.747Z,18.90
2018-08-24T15:48:53.337Z,18.80
2018-08-24T15:51:21.041Z,18.80
2018-08-24T15:53:48.758Z,18.70
2018-08-24T15:56:16.505Z,18.70
2018-08-24T15:58:44.151Z,18.70
2018-08-24T16:01:13.031Z,18.70
2018-08-24T16:03:40.683Z,18.60
2018-08-24T16:06:08.648Z,18.60
2018-08-24T16:08:36.323Z,18.50
2018-08-24T16:11:03.996Z,18.50
2018-08-24T16:13:31.795Z,18.50
2018-08-24T16:15:59.587Z,18.40
2018-08-24T16:18:27.416Z,19.00
2018-08-24T16:20:55.154Z,18.60
2018-08-24T16:23:22.928Z,18.70
2018-08-24T16:25:50.815Z,18.70
2018-08-24T16:28:18.944Z,18.80
2018-08-24T16:30:46.690Z,18.80
2018-08-24T16:33:14.451Z,18.70
2018-08-24T16:35:42.112Z,18.70
2018-08-24T16:38:10.679Z,18.60
2018-08-24T16:40:38.337Z,18.50
2018-08-24T16:43:06.048Z,18.40
2018-08-24T16:45:33.706Z,18.40
2018-08-24T16:48:01.519Z,18.40
2018-08-24T16:50:29.434Z,18.30
2018-08-24T16:52:57.280Z,18.30
2018-08-24T16:55:25.030Z,18.30
2018-08-24T16:57:53.576Z,18.20
2018-08-24T17:00:21.249Z,18.20
2018-08-24T17:02:48.907Z,18.20
2018-08-24T17:05:16.630Z,18.10
2018-08-24T17:07:44.263Z,18.20
2018-08-24T17:10:11.964Z,18.10
2018-08-24T17:12:39.743Z,18.00
2018-08-24T17:15:07.490Z,17.90
2018-08-24T17:17:35.128Z,17.80
2018-08-24T17:20:02.803Z,17.80
2018-08-24T17:22:30.463Z,17.80
2018-08-24T17:24:58.151Z,17.70
2018-08-24T17:27:26.101Z,17.70
2018-08-24T17:29:53.915Z,17.70
2018-08-24T17:32:21.860Z,17.70
2018-08-24T17:34:49.519Z,17.60
2018-08-24T17:37:17.147Z,17.50
2018-08-24T17:39:44.863Z,17.50
2018-08-24T17:42:12.507Z,17.50
2018-08-24T17:44:40.164Z,17.50
2018-08-24T17:47:07.862Z,17.50
2018-08-24T17:49:35.516Z,17.50
2018-08-24T17:52:03.274Z,17.40
2018-08-24T17:54:31.117Z,17.40
2018-08-24T17:56:58.783Z,17.40
2018-08-24T17:59:26.467Z,17.40
2018-08-24T18:01:54.191Z,17.30
2018-08-24T18:04:21.861Z,17.30
2018-08-24T18:06:49.537Z,17.30
2018-08-24T18:09:17.171Z,17.30
2018-08-24T18:11:44.886Z,17.30
2018-08-24T18:14:13.170Z,17.20
2018-08-24T18:16:40.897Z,17.20
2018-08-24T18:19:08.555Z,17.20
2018-08-24T18:21:36.330Z,17.20
2018-08-24T18:24:10.996Z,17.10
2018-08-24T18:26:38.636Z,17.10
2018-08-24T18:29:06.343Z,17.00
2018-08-24T18:31:34.341Z,16.90
2018-08-24T18:34:02.315Z,16.80
2018-08-24T18:36:30.060Z,16.80
2018-08-24T18:38:57.717Z,16.80
2018-08-24T18:41:25.499Z,16.80
2018-08-24T18:43:53.239Z,16.80
2018-08-24T18:46:21.067Z,16.80
2018-08-24T18:48:48.710Z,16.70
2018-08-24T18:51:16.344Z,16.70
2018-08-24T18:53:44.260Z,16.70
2018-08-24T18:56:11.927Z,16.70
2018-08-24T18:58:39.595Z,16.70
2018-08-24T19:01:08.008Z,16.80
2018-08-24T19:03:35.719Z,16.70
2018-08-24T19:06:03.500Z,16.70
2018-08-24T19:08:31.171Z,16.70
2018-08-24T19:11:04.791Z,16.60
2018-08-24T19:13:32.443Z,16.60
2018-08-24T19:16:00.100Z,16.60
2018-08-24T19:18:33.531Z,16.50
2018-08-24T19:21:06.858Z,16.50
2018-08-24T19:23:34.532Z,16.50
2018-08-24T19:26:03.053Z,16.50
2018-08-24T19:28:38.499Z,16.50
2018-08-24T19:31:06.328Z,16.40
2018-08-24T19:33:33.974Z,16.40
2018-08-24T19:36:02.860Z,16.50
2018-08-24T19:38:30.562Z,16.50
2018-08-24T19:41:06.801Z,16.60
2018-08-24T19:43:34.774Z,16.60
2018-08-24T19:46:02.467Z,16.70
2018-08-24T19:48:37.132Z,16.70
2018-08-24T19:51:04.827Z,16.60
2018-08-24T19:53:35.003Z,16.60
2018-08-24T19:56:02.655Z,16.60
2018-08-24T19:58:36.590Z,16.50
2018-08-24T20:01:04.331Z,16.50
2018-08-24T20:03:32.040Z,16.50
2018-08-24T20:06:05.443Z,16.50
2018-08-24T20:08:38.891Z,16.50
2018-08-24T20:11:06.759Z,16.50
2018-08-24T20:13:34.388Z,16.50
2018-08-24T20:16:07.751Z,16.40
2018-08-24T20:18:35.524Z,16.40
2018-08-24T20:21:03.367Z,16.40
2018-08-24T20:23:31.207Z,16.40
2018-08-24T20:25:58.942Z,16.40
2018-08-24T20:28:26.625Z,16.30
2018-08-24T20:30:54.412Z,16.30
2018-08-24T20:33:22.233Z,16.30
2018-08-24T20:35:49.985Z,16.30
2018-08-24T20:38:17.653Z,16.20
2018-08-24T20:40:45.431Z,16.30
2018-08-24T20:43:13.183Z,16.30
2018-08-24T20:45:41.227Z,16.30
2018-08-24T20:48:08.872Z,16.20
2018-08-24T20:50:37.071Z,16.20
2018-08-24T20:53:05.088Z,16.20
2018-08-24T20:55:32.830Z,16.20
2018-08-24T20:58:00.551Z,16.20
2018-08-24T21:00:28.334Z,16.20
2018-08-24T21:02:56.933Z,16.10
2018-08-24T21:05:24.888Z,16.10
2018-08-24T21:07:52.577Z,16.20
2018-08-24T21:10:20.418Z,16.50
2018-08-24T21:12:48.217Z,16.20
2018-08-24T21:15:15.856Z,16.30
2018-08-24T21:17:43.516Z,16.40
2018-08-24T21:20:11.152Z,16.40
2018-08-24T21:22:40.027Z,16.40
2018-08-24T21:25:07.880Z,16.40
2018-08-24T21:27:35.576Z,16.50
2018-08-24T21:30:03.443Z,16.50
2018-08-24T21:32:31.071Z,16.50
2018-08-24T21:34:58.899Z,16.50
2018-08-24T21:37:26.579Z,16.60
2018-08-24T21:39:54.247Z,16.60
2018-08-24T21:42:22.027Z,16.60
2018-08-24T21:44:49.705Z,16.60
2018-08-24T21:47:17.598Z,16.60
2018-08-24T21:49:45.458Z,16.60
2018-08-24T21:52:13.326Z,16.60
2018-08-24T21:54:40.979Z,16.60
2018-08-24T21:57:09.789Z,16.60
2018-08-24T21:59:37.625Z,16.60
2018-08-24T22:02:05.351Z,16.60
2018-08-24T22:04:33.203Z,16.50
2018-08-24T22:07:00.850Z,16.50
2018-08-24T22:09:28.516Z,16.60
2018-08-24T22:11:56.175Z,16.50
2018-08-24T22:14:24.023Z,16.50
2018-08-24T22:16:51.826Z,16.50
2018-08-24T22:19:19.583Z,16.40
2018-08-24T22:21:47.363Z,16.40
2018-08-24T22:24:15.011Z,16.30
2018-08-24T22:26:42.976Z,16.30
2018-08-24T22:29:10.804Z,16.20
2018-08-24T22:31:38.480Z,16.10
2018-08-24T22:34:06.327Z,16.00
2018-08-24T22:36:34.613Z,15.90
2018-08-24T22:39:02.550Z,15.70
2018-08-24T22:41:30.295Z,15.60
2018-08-24T22:43:58.060Z,15.50
2018-08-24T22:46:25.817Z,15.30
2018-08-24T22:48:53.968Z,15.20
2018-08-24T22:51:21.936Z,15.00
2018-08-24T22:53:49.672Z,15.00
2018-08-24T22:56:17.509Z,14.90
2018-08-24T22:58:45.239Z,14.80
2018-08-24T23:01:13.072Z,14.90
2018-08-24T23:03:40.794Z,14.80
2018-08-24T23:06:09.055Z,14.70
2018-08-24T23:08:36.891Z,14.60
2018-08-24T23:11:04.686Z,14.50
2018-08-24T23:13:32.486Z,14.40
2018-08-24T23:16:00.302Z,14.30
2018-08-24T23:18:27.949Z,14.30
2018-08-24T23:20:55.655Z,14.30
2018-08-24T23:23:23.535Z,14.20
2018-08-24T23:25:51.340Z,14.20
2018-08-24T23:28:19.006Z,14.10
2018-08-24T23:30:49.258Z,14.10
2018-08-24T23:33:17.081Z,14.00
2018-08-24T23:35:45.061Z,13.90
2018-08-24T23:38:13.613Z,13.80
2018-08-24T23:40:41.620Z,13.80
2018-08-24T23:43:09.385Z,13.80
2018-08-24T23:45:37.318Z,13.60
2018-08-24T23:48:06.566Z,13.60
2018-08-24T23:50:34.544Z,13.50
2018-08-24T23:53:03.672Z,13.40
2018-08-24T23:55:31.468Z,13.40
2018-08-24T23:57:59.463Z,13.40
